sensor_id;sensor_type;location;lat;lon;timestamp;temperature;humidity
32698;DHT22;19087;51.062;3.754;2024-01-06T00:00:08;8.60;99.90
32698;DHT22;19087;51.062;3.754;2024-01-06T00:02:35;8.60;99.90
32698;DHT22;19087;51.062;3.754;2024-01-06T00:05:01;8.50;99.90
32698;DHT22;19087;51.062;3.754;2024-01-06T00:07:27;8.60;99.90
32698;DHT22;19087;51.062;3.754;2024-01-06T00:09:53;8.70;99.90
32698;DHT22;19087;51.062;3.754;2024-01-06T00:12:19;8.60;99.90
32698;DHT22;19087;51.062;3.754;2024-01-06T00:14:45;8.50;99.90
32698;DHT22;19087;51.062;3.754;2024-01-06T00:17:11;8.60;99.90
32698;DHT22;19087;51.062;3.754;2024-01-06T00:19:39;8.60;99.90
32698;DHT22;19087;51.062;3.754;2024-01-06T00:22:05;8.50;99.90
32698;DHT22;19087;51.062;3.754;2024-01-06T00:24:31;8.60;99.90
32698;DHT22;19087;51.062;3.754;2024-01-06T00:26:58;8.60;99.90
32698;DHT22;19087;51.062;3.754;2024-01-06T00:29:25;8.70;99.90
32698;DHT22;19087;51.062;3.754;2024-01-06T00:32:11;8.70;99.90
32698;DHT22;19087;51.062;3.754;2024-01-06T00:34:38;8.60;99.90
32698;DHT22;19087;51.062;3.754;2024-01-06T00:37:05;8.70;99.90
32698;DHT22;19087;51.062;3.754;2024-01-06T00:39:33;8.60;99.90
32698;DHT22;19087;51.062;3.754;2024-01-06T11:17:09;6.40;99.90
32698;DHT22;19087;51.062;3.754;2024-01-06T11:24:48;7.00;99.90
32698;DHT22;19087;51.062;3.754;2024-01-06T11:27:26;7.20;99.90
32698;DHT22;19087;51.062;3.754;2024-01-06T11:30:02;7.40;99.90
32698;DHT22;19087;51.062;3.754;2024-01-06T11:32:34;7.70;99.90
32698;DHT22;19087;51.062;3.754;2024-01-06T11:35:13;7.80;99.90
32698;DHT22;19087;51.062;3.754;2024-01-06T11:40:35;8.10;99.90
32698;DHT22;19087;51.062;3.754;2024-01-06T11:43:15;8.20;99.90
32698;DHT22;19087;51.062;3.754;2024-01-06T11:45:44;8.10;99.90
32698;DHT22;19087;51.062;3.754;2024-01-06T11:48:11;8.10;99.90
32698;DHT22;19087;51.062;3.754;2024-01-06T11:50:40;8.10;99.90
32698;DHT22;19087;51.062;3.754;2024-01-06T11:53:08;7.90;99.90
32698;DHT22;19087;51.062;3.754;2024-01-06T11:55:35;8.00;99.90
32698;DHT22;19087;51.062;3.754;2024-01-06T11:58:03;8.00;99.90
32698;DHT22;19087;51.062;3.754;2024-01-06T12:00:35;7.90;99.90
32698;DHT22;19087;51.062;3.754;2024-01-06T12:03:05;8.00;99.90
32698;DHT22;19087;51.062;3.754;2024-01-06T12:05:31;8.10;99.90
32698;DHT22;19087;51.062;3.754;2024-01-06T12:07:58;8.10;99.90
32698;DHT22;19087;51.062;3.754;2024-01-06T12:10:26;8.10;99.90
32698;DHT22;19087;51.062;3.754;2024-01-06T12:12:59;8.10;99.90
32698;DHT22;19087;51.062;3.754;2024-01-06T12:15:25;8.10;99.90
32698;DHT22;19087;51.062;3.754;2024-01-06T12:17:51;8.10;99.90
32698;DHT22;19087;51.062;3.754;2024-01-06T12:20:22;7.90;99.90
32698;DHT22;19087;51.062;3.754;2024-01-06T12:22:57;7.90;99.90
32698;DHT22;19087;51.062;3.754;2024-01-06T12:25:23;8.00;99.90
32698;DHT22;19087;51.062;3.754;2024-01-06T12:27:51;7.90;99.90
32698;DHT22;19087;51.062;3.754;2024-01-06T12:30:21;7.90;99.90
32698;DHT22;19087;51.062;3.754;2024-01-06T12:32:52;8.00;99.90
32698;DHT22;19087;51.062;3.754;2024-01-06T12:35:19;8.10;99.90
32698;DHT22;19087;51.062;3.754;2024-01-06T12:37:48;8.10;99.90
32698;DHT22;19087;51.062;3.754;2024-01-06T12:40:15;8.10;99.90
32698;DHT22;19087;51.062;3.754;2024-01-06T12:42:52;8.10;99.90
32698;DHT22;19087;51.062;3.754;2024-01-06T12:45:26;8.10;99.90
32698;DHT22;19087;51.062;3.754;2024-01-06T12:47:57;8.10;99.90
32698;DHT22;19087;51.062;3.754;2024-01-06T12:50:24;7.90;99.90
32698;DHT22;19087;51.062;3.754;2024-01-06T12:52:50;7.90;99.90
32698;DHT22;19087;51.062;3.754;2024-01-06T12:55:16;7.90;99.90
32698;DHT22;19087;51.062;3.754;2024-01-06T12:57:43;7.90;99.90
32698;DHT22;19087;51.062;3.754;2024-01-06T13:00:10;8.00;99.90
32698;DHT22;19087;51.062;3.754;2024-01-06T13:02:37;8.00;99.90
32698;DHT22;19087;51.062;3.754;2024-01-06T13:05:04;8.30;99.90
32698;DHT22;19087;51.062;3.754;2024-01-06T13:07:30;8.30;99.90
32698;DHT22;19087;51.062;3.754;2024-01-06T13:09:57;8.40;99.90
32698;DHT22;19087;51.062;3.754;2024-01-06T13:12:23;8.30;99.90
32698;DHT22;19087;51.062;3.754;2024-01-06T13:14:50;8.40;99.90
32698;DHT22;19087;51.062;3.754;2024-01-06T13:17:17;8.30;99.90
32698;DHT22;19087;51.062;3.754;2024-01-06T13:19:43;8.30;99.90
32698;DHT22;19087;51.062;3.754;2024-01-06T13:22:10;8.50;99.90
32698;DHT22;19087;51.062;3.754;2024-01-06T13:24:36;8.40;99.90
32698;DHT22;19087;51.062;3.754;2024-01-06T13:27:03;8.60;99.90
32698;DHT22;19087;51.062;3.754;2024-01-06T13:29:30;8.50;99.90
32698;DHT22;19087;51.062;3.754;2024-01-06T13:31:55;8.50;99.90
32698;DHT22;19087;51.062;3.754;2024-01-06T13:34:22;8.60;99.90
32698;DHT22;19087;51.062;3.754;2024-01-06T13:36:48;8.70;99.90
32698;DHT22;19087;51.062;3.754;2024-01-06T13:39:15;8.60;99.90
32698;DHT22;19087;51.062;3.754;2024-01-06T13:41:49;8.70;99.90
32698;DHT22;19087;51.062;3.754;2024-01-06T13:44:15;8.70;99.90
32698;DHT22;19087;51.062;3.754;2024-01-06T13:46:42;8.60;99.90
32698;DHT22;19087;51.062;3.754;2024-01-06T13:49:12;8.60;99.90
32698;DHT22;19087;51.062;3.754;2024-01-06T13:51:39;8.60;99.90
32698;DHT22;19087;51.062;3.754;2024-01-06T13:54:05;8.70;99.90
32698;DHT22;19087;51.062;3.754;2024-01-06T13:56:31;8.90;99.90
32698;DHT22;19087;51.062;3.754;2024-01-06T13:58:57;8.90;99.90
32698;DHT22;19087;51.062;3.754;2024-01-06T14:01:23;8.70;99.90
32698;DHT22;19087;51.062;3.754;2024-01-06T14:03:50;8.70;99.90
32698;DHT22;19087;51.062;3.754;2024-01-06T14:06:18;8.70;99.90
32698;DHT22;19087;51.062;3.754;2024-01-06T14:08:43;8.70;99.90
32698;DHT22;19087;51.062;3.754;2024-01-06T14:11:09;8.50;99.90
32698;DHT22;19087;51.062;3.754;2024-01-06T14:13:35;8.50;99.90
32698;DHT22;19087;51.062;3.754;2024-01-06T14:16:01;8.40;99.90
32698;DHT22;19087;51.062;3.754;2024-01-06T14:18:26;8.30;99.90
32698;DHT22;19087;51.062;3.754;2024-01-06T14:20:53;8.20;99.90
32698;DHT22;19087;51.062;3.754;2024-01-06T14:23:21;8.20;99.90
32698;DHT22;19087;51.062;3.754;2024-01-06T14:25:47;8.00;99.90
32698;DHT22;19087;51.062;3.754;2024-01-06T14:28:13;8.00;99.90
32698;DHT22;19087;51.062;3.754;2024-01-06T14:30:39;7.90;99.90
32698;DHT22;19087;51.062;3.754;2024-01-06T14:33:06;7.90;99.90
32698;DHT22;19087;51.062;3.754;2024-01-06T14:35:32;7.90;99.90
32698;DHT22;19087;51.062;3.754;2024-01-06T14:38:02;7.80;99.90
32698;DHT22;19087;51.062;3.754;2024-01-06T14:40:30;8.00;99.90
32698;DHT22;19087;51.062;3.754;2024-01-06T14:42:56;8.00;99.90
32698;DHT22;19087;51.062;3.754;2024-01-06T14:45:23;8.10;99.90
32698;DHT22;19087;51.062;3.754;2024-01-06T14:47:48;8.00;99.90
32698;DHT22;19087;51.062;3.754;2024-01-06T14:50:16;8.20;99.90
32698;DHT22;19087;51.062;3.754;2024-01-06T14:52:42;8.30;99.90
32698;DHT22;19087;51.062;3.754;2024-01-06T14:55:08;8.30;99.90
32698;DHT22;19087;51.062;3.754;2024-01-06T14:57:35;8.40;99.90
32698;DHT22;19087;51.062;3.754;2024-01-06T15:00:01;8.40;99.90
32698;DHT22;19087;51.062;3.754;2024-01-06T15:02:27;8.40;99.90
32698;DHT22;19087;51.062;3.754;2024-01-06T15:04:53;8.40;99.90
32698;DHT22;19087;51.062;3.754;2024-01-06T15:07:19;8.20;99.90
32698;DHT22;19087;51.062;3.754;2024-01-06T15:09:44;8.20;99.90
32698;DHT22;19087;51.062;3.754;2024-01-06T15:12:12;8.00;99.90
32698;DHT22;19087;51.062;3.754;2024-01-06T15:14:38;7.90;99.90
32698;DHT22;19087;51.062;3.754;2024-01-06T15:17:05;7.90;99.90
32698;DHT22;19087;51.062;3.754;2024-01-06T15:19:31;7.90;99.90
32698;DHT22;19087;51.062;3.754;2024-01-06T15:21:57;8.00;99.90
32698;DHT22;19087;51.062;3.754;2024-01-06T15:24:23;7.80;99.90
32698;DHT22;19087;51.062;3.754;2024-01-06T15:26:53;7.80;99.90
32698;DHT22;19087;51.062;3.754;2024-01-06T15:29:25;7.80;99.90
32698;DHT22;19087;51.062;3.754;2024-01-06T15:31:50;7.70;99.90
32698;DHT22;19087;51.062;3.754;2024-01-06T15:34:23;7.70;99.90
32698;DHT22;19087;51.062;3.754;2024-01-06T15:36:55;7.60;99.90
32698;DHT22;19087;51.062;3.754;2024-01-06T15:39:22;7.50;99.90
32698;DHT22;19087;51.062;3.754;2024-01-06T15:41:48;7.30;99.90
32698;DHT22;19087;51.062;3.754;2024-01-06T15:44:14;7.40;99.90
32698;DHT22;19087;51.062;3.754;2024-01-06T15:46:41;7.40;99.90
32698;DHT22;19087;51.062;3.754;2024-01-06T15:49:07;7.60;99.90
32698;DHT22;19087;51.062;3.754;2024-01-06T15:51:32;7.70;99.90
32698;DHT22;19087;51.062;3.754;2024-01-06T15:53:58;7.80;99.90
32698;DHT22;19087;51.062;3.754;2024-01-06T15:56:24;7.70;99.90
32698;DHT22;19087;51.062;3.754;2024-01-06T15:58:50;7.70;99.90
32698;DHT22;19087;51.062;3.754;2024-01-06T16:01:22;7.70;99.90
32698;DHT22;19087;51.062;3.754;2024-01-06T16:03:48;7.70;99.90
32698;DHT22;19087;51.062;3.754;2024-01-06T16:06:15;7.60;99.90
32698;DHT22;19087;51.062;3.754;2024-01-06T16:08:43;7.50;99.90
32698;DHT22;19087;51.062;3.754;2024-01-06T16:11:10;7.50;99.90
32698;DHT22;19087;51.062;3.754;2024-01-06T16:13:36;7.30;99.90
32698;DHT22;19087;51.062;3.754;2024-01-06T16:16:03;7.30;99.90
32698;DHT22;19087;51.062;3.754;2024-01-06T16:18:29;7.30;99.90
32698;DHT22;19087;51.062;3.754;2024-01-06T16:20:57;7.30;99.90
32698;DHT22;19087;51.062;3.754;2024-01-06T16:23:25;7.30;99.90
32698;DHT22;19087;51.062;3.754;2024-01-06T16:25:52;7.30;99.90
32698;DHT22;19087;51.062;3.754;2024-01-06T16:28:18;7.30;99.90
32698;DHT22;19087;51.062;3.754;2024-01-06T16:30:43;7.20;99.90
32698;DHT22;19087;51.062;3.754;2024-01-06T16:33:10;7.30;99.90
32698;DHT22;19087;51.062;3.754;2024-01-06T16:35:37;7.00;99.90
32698;DHT22;19087;51.062;3.754;2024-01-06T16:38:03;7.10;99.90
32698;DHT22;19087;51.062;3.754;2024-01-06T16:40:31;7.10;99.90
32698;DHT22;19087;51.062;3.754;2024-01-06T16:42:58;7.20;99.90
32698;DHT22;19087;51.062;3.754;2024-01-06T16:45:23;7.00;99.90
32698;DHT22;19087;51.062;3.754;2024-01-06T16:48:05;7.10;99.90
32698;DHT22;19087;51.062;3.754;2024-01-06T16:50:33;7.20;99.90
32698;DHT22;19087;51.062;3.754;2024-01-06T16:52:59;7.10;99.90
32698;DHT22;19087;51.062;3.754;2024-01-06T16:55:25;7.10;99.90
32698;DHT22;19087;51.062;3.754;2024-01-06T16:57:51;6.90;99.90
32698;DHT22;19087;51.062;3.754;2024-01-06T17:00:18;7.00;99.90
32698;DHT22;19087;51.062;3.754;2024-01-06T17:02:44;7.00;99.90
32698;DHT22;19087;51.062;3.754;2024-01-06T17:05:10;7.00;99.90
32698;DHT22;19087;51.062;3.754;2024-01-06T17:07:37;6.90;99.90
32698;DHT22;19087;51.062;3.754;2024-01-06T17:10:02;6.90;99.90
32698;DHT22;19087;51.062;3.754;2024-01-06T17:12:28;6.90;99.90
32698;DHT22;19087;51.062;3.754;2024-01-06T17:14:54;6.80;99.90
32698;DHT22;19087;51.062;3.754;2024-01-06T17:17:21;6.80;99.90
32698;DHT22;19087;51.062;3.754;2024-01-06T17:19:47;6.60;99.90
32698;DHT22;19087;51.062;3.754;2024-01-06T17:22:12;6.50;99.90
32698;DHT22;19087;51.062;3.754;2024-01-06T17:24:44;6.60;99.90
32698;DHT22;19087;51.062;3.754;2024-01-06T17:27:09;6.60;99.90
32698;DHT22;19087;51.062;3.754;2024-01-06T17:29:36;6.60;99.90
32698;DHT22;19087;51.062;3.754;2024-01-06T17:32:02;6.60;99.90
32698;DHT22;19087;51.062;3.754;2024-01-06T17:34:28;6.70;99.90
32698;DHT22;19087;51.062;3.754;2024-01-06T17:36:54;6.80;99.90
32698;DHT22;19087;51.062;3.754;2024-01-06T17:39:20;6.80;99.90
32698;DHT22;19087;51.062;3.754;2024-01-06T17:41:46;6.90;99.90
32698;DHT22;19087;51.062;3.754;2024-01-06T17:44:12;6.90;99.90
32698;DHT22;19087;51.062;3.754;2024-01-06T17:46:40;6.80;99.90
32698;DHT22;19087;51.062;3.754;2024-01-06T17:49:05;6.80;99.90
32698;DHT22;19087;51.062;3.754;2024-01-06T17:51:33;7.00;99.90
32698;DHT22;19087;51.062;3.754;2024-01-06T17:53:59;7.00;99.90
32698;DHT22;19087;51.062;3.754;2024-01-06T17:56:25;6.80;99.90
32698;DHT22;19087;51.062;3.754;2024-01-06T17:58:51;6.90;99.90
32698;DHT22;19087;51.062;3.754;2024-01-06T18:01:17;7.00;99.90
32698;DHT22;19087;51.062;3.754;2024-01-06T18:03:43;7.10;99.90
32698;DHT22;19087;51.062;3.754;2024-01-06T18:06:10;7.20;99.90
32698;DHT22;19087;51.062;3.754;2024-01-06T18:08:37;7.10;99.90
32698;DHT22;19087;51.062;3.754;2024-01-06T18:11:03;7.10;99.90
32698;DHT22;19087;51.062;3.754;2024-01-06T18:13:29;7.10;99.90
32698;DHT22;19087;51.062;3.754;2024-01-06T18:15:54;7.10;99.90
32698;DHT22;19087;51.062;3.754;2024-01-06T18:18:20;7.00;99.90
32698;DHT22;19087;51.062;3.754;2024-01-06T18:20:46;6.70;99.90
32698;DHT22;19087;51.062;3.754;2024-01-06T18:23:12;6.70;99.90
32698;DHT22;19087;51.062;3.754;2024-01-06T18:25:38;6.80;99.90
32698;DHT22;19087;51.062;3.754;2024-01-06T18:28:04;6.80;99.90
32698;DHT22;19087;51.062;3.754;2024-01-06T18:30:30;6.90;99.90
32698;DHT22;19087;51.062;3.754;2024-01-06T18:32:59;6.90;99.90
32698;DHT22;19087;51.062;3.754;2024-01-06T18:35:24;6.80;99.90
32698;DHT22;19087;51.062;3.754;2024-01-06T18:37:53;6.70;99.90
32698;DHT22;19087;51.062;3.754;2024-01-06T18:40:23;6.70;99.90
32698;DHT22;19087;51.062;3.754;2024-01-06T18:42:49;6.70;99.90
32698;DHT22;19087;51.062;3.754;2024-01-06T18:45:15;6.60;99.90
32698;DHT22;19087;51.062;3.754;2024-01-06T18:47:51;6.60;99.90
32698;DHT22;19087;51.062;3.754;2024-01-06T18:50:17;6.80;99.90
32698;DHT22;19087;51.062;3.754;2024-01-06T18:52:45;6.90;99.90
32698;DHT22;19087;51.062;3.754;2024-01-06T18:55:13;6.90;99.90
32698;DHT22;19087;51.062;3.754;2024-01-06T18:57:39;7.00;99.90
32698;DHT22;19087;51.062;3.754;2024-01-06T19:00:06;7.20;99.90
32698;DHT22;19087;51.062;3.754;2024-01-06T19:02:35;7.10;99.90
32698;DHT22;19087;51.062;3.754;2024-01-06T19:05:02;7.00;99.90
32698;DHT22;19087;51.062;3.754;2024-01-06T19:07:28;7.00;99.90
32698;DHT22;19087;51.062;3.754;2024-01-06T19:09:54;7.10;99.90
32698;DHT22;19087;51.062;3.754;2024-01-06T19:12:20;7.00;99.90
32698;DHT22;19087;51.062;3.754;2024-01-06T19:14:46;7.00;99.90
32698;DHT22;19087;51.062;3.754;2024-01-06T19:17:12;6.90;99.90
32698;DHT22;19087;51.062;3.754;2024-01-06T19:19:38;6.70;99.90
32698;DHT22;19087;51.062;3.754;2024-01-06T19:22:06;6.70;99.90
32698;DHT22;19087;51.062;3.754;2024-01-06T19:24:32;6.70;99.90
32698;DHT22;19087;51.062;3.754;2024-01-06T19:26:59;6.70;99.90
32698;DHT22;19087;51.062;3.754;2024-01-06T19:29:25;6.60;99.90
32698;DHT22;19087;51.062;3.754;2024-01-06T19:31:51;6.60;99.90
32698;DHT22;19087;51.062;3.754;2024-01-06T19:34:17;6.70;99.90
32698;DHT22;19087;51.062;3.754;2024-01-06T19:36:43;6.70;99.90
32698;DHT22;19087;51.062;3.754;2024-01-06T19:39:09;6.70;99.90
32698;DHT22;19087;51.062;3.754;2024-01-06T19:41:35;6.80;99.90
32698;DHT22;19087;51.062;3.754;2024-01-06T19:44:01;6.80;99.90
32698;DHT22;19087;51.062;3.754;2024-01-06T19:46:29;7.00;99.90
32698;DHT22;19087;51.062;3.754;2024-01-06T19:48:54;7.00;99.90
32698;DHT22;19087;51.062;3.754;2024-01-06T19:51:20;7.00;99.90
32698;DHT22;19087;51.062;3.754;2024-01-06T19:53:46;7.00;99.90
32698;DHT22;19087;51.062;3.754;2024-01-06T19:56:14;6.80;99.90
32698;DHT22;19087;51.062;3.754;2024-01-06T19:58:41;6.80;99.90
32698;DHT22;19087;51.062;3.754;2024-01-06T20:01:11;6.80;99.90
32698;DHT22;19087;51.062;3.754;2024-01-06T20:03:40;6.90;99.90
32698;DHT22;19087;51.062;3.754;2024-01-06T20:06:06;7.00;99.90
32698;DHT22;19087;51.062;3.754;2024-01-06T20:08:32;6.90;99.90
32698;DHT22;19087;51.062;3.754;2024-01-06T20:11:00;7.00;99.90
32698;DHT22;19087;51.062;3.754;2024-01-06T20:13:29;7.00;99.90
32698;DHT22;19087;51.062;3.754;2024-01-06T20:15:59;7.00;99.90
32698;DHT22;19087;51.062;3.754;2024-01-06T20:18:27;7.00;99.90
32698;DHT22;19087;51.062;3.754;2024-01-06T20:20:55;6.90;99.90
32698;DHT22;19087;51.062;3.754;2024-01-06T20:23:21;7.10;99.90
32698;DHT22;19087;51.062;3.754;2024-01-06T20:25:48;7.10;99.90
32698;DHT22;19087;51.062;3.754;2024-01-06T20:28:14;7.30;99.90
32698;DHT22;19087;51.062;3.754;2024-01-06T20:30:41;7.40;99.90
32698;DHT22;19087;51.062;3.754;2024-01-06T20:33:07;7.20;99.90
32698;DHT22;19087;51.062;3.754;2024-01-06T20:35:33;7.30;99.90
32698;DHT22;19087;51.062;3.754;2024-01-06T20:38:01;7.20;99.90
32698;DHT22;19087;51.062;3.754;2024-01-06T20:40:27;7.20;99.90
32698;DHT22;19087;51.062;3.754;2024-01-06T20:42:53;7.20;99.90
32698;DHT22;19087;51.062;3.754;2024-01-06T20:45:31;7.00;99.90
32698;DHT22;19087;51.062;3.754;2024-01-06T20:48:20;6.90;99.90
32698;DHT22;19087;51.062;3.754;2024-01-06T20:50:47;6.90;99.90
32698;DHT22;19087;51.062;3.754;2024-01-06T20:53:20;7.00;99.90
32698;DHT22;19087;51.062;3.754;2024-01-06T20:55:46;7.10;99.90
32698;DHT22;19087;51.062;3.754;2024-01-06T20:58:12;7.10;99.90
32698;DHT22;19087;51.062;3.754;2024-01-06T21:00:38;7.00;99.90
32698;DHT22;19087;51.062;3.754;2024-01-06T21:03:04;7.00;99.90
32698;DHT22;19087;51.062;3.754;2024-01-06T21:05:33;7.10;99.90
32698;DHT22;19087;51.062;3.754;2024-01-06T21:07:59;7.20;99.90
32698;DHT22;19087;51.062;3.754;2024-01-06T21:10:25;7.10;99.90
32698;DHT22;19087;51.062;3.754;2024-01-06T21:12:51;7.10;99.90
32698;DHT22;19087;51.062;3.754;2024-01-06T21:15:17;6.90;99.90
32698;DHT22;19087;51.062;3.754;2024-01-06T21:17:43;6.90;99.90
32698;DHT22;19087;51.062;3.754;2024-01-06T21:20:09;7.10;99.90
32698;DHT22;19087;51.062;3.754;2024-01-06T21:22:36;7.10;99.90
32698;DHT22;19087;51.062;3.754;2024-01-06T21:25:03;6.90;99.90
32698;DHT22;19087;51.062;3.754;2024-01-06T21:27:31;7.00;99.90
32698;DHT22;19087;51.062;3.754;2024-01-06T21:29:59;7.00;99.90
32698;DHT22;19087;51.062;3.754;2024-01-06T21:32:29;7.10;99.90
32698;DHT22;19087;51.062;3.754;2024-01-06T21:34:55;7.10;99.90
32698;DHT22;19087;51.062;3.754;2024-01-06T21:37:22;7.10;99.90
32698;DHT22;19087;51.062;3.754;2024-01-06T21:39:48;7.10;99.90
32698;DHT22;19087;51.062;3.754;2024-01-06T21:42:14;7.10;99.90
32698;DHT22;19087;51.062;3.754;2024-01-06T21:44:40;7.00;99.90
32698;DHT22;19087;51.062;3.754;2024-01-06T21:47:08;6.80;99.90
32698;DHT22;19087;51.062;3.754;2024-01-06T21:49:33;6.80;99.90
32698;DHT22;19087;51.062;3.754;2024-01-06T21:51:59;6.80;99.90
32698;DHT22;19087;51.062;3.754;2024-01-06T21:54:25;6.70;99.90
32698;DHT22;19087;51.062;3.754;2024-01-06T21:56:51;6.70;99.90
32698;DHT22;19087;51.062;3.754;2024-01-06T21:59:17;6.90;99.90
32698;DHT22;19087;51.062;3.754;2024-01-06T22:01:43;7.00;99.90
32698;DHT22;19087;51.062;3.754;2024-01-06T22:04:14;6.90;99.90
32698;DHT22;19087;51.062;3.754;2024-01-06T22:06:40;6.80;99.90
32698;DHT22;19087;51.062;3.754;2024-01-06T22:09:06;6.80;99.90
32698;DHT22;19087;51.062;3.754;2024-01-06T22:11:36;6.80;99.90
32698;DHT22;19087;51.062;3.754;2024-01-06T22:14:03;6.70;99.90
32698;DHT22;19087;51.062;3.754;2024-01-06T22:16:30;6.60;99.90
32698;DHT22;19087;51.062;3.754;2024-01-06T22:18:56;6.70;99.90
32698;DHT22;19087;51.062;3.754;2024-01-06T22:21:22;6.70;99.90
32698;DHT22;19087;51.062;3.754;2024-01-06T22:23:48;6.60;99.90
32698;DHT22;19087;51.062;3.754;2024-01-06T22:26:13;6.60;99.90
32698;DHT22;19087;51.062;3.754;2024-01-06T22:28:39;6.70;99.90
32698;DHT22;19087;51.062;3.754;2024-01-06T22:31:09;6.70;99.90
32698;DHT22;19087;51.062;3.754;2024-01-06T22:33:35;6.60;99.90
32698;DHT22;19087;51.062;3.754;2024-01-06T22:36:01;6.50;99.90
32698;DHT22;19087;51.062;3.754;2024-01-06T22:38:27;6.50;99.90
32698;DHT22;19087;51.062;3.754;2024-01-06T22:40:53;6.50;99.90
32698;DHT22;19087;51.062;3.754;2024-01-06T22:43:19;6.60;99.90
32698;DHT22;19087;51.062;3.754;2024-01-06T22:45:45;6.50;99.90
32698;DHT22;19087;51.062;3.754;2024-01-06T22:48:11;6.30;99.90
32698;DHT22;19087;51.062;3.754;2024-01-06T22:50:37;6.20;99.90
32698;DHT22;19087;51.062;3.754;2024-01-06T22:53:03;6.20;99.90
32698;DHT22;19087;51.062;3.754;2024-01-06T22:55:31;6.00;99.90
32698;DHT22;19087;51.062;3.754;2024-01-06T22:57:56;5.80;99.90
32698;DHT22;19087;51.062;3.754;2024-01-06T23:00:24;6.00;99.90
32698;DHT22;19087;51.062;3.754;2024-01-06T23:02:55;5.90;99.90
32698;DHT22;19087;51.062;3.754;2024-01-06T23:05:22;5.80;99.90
32698;DHT22;19087;51.062;3.754;2024-01-06T23:07:49;5.80;99.90
32698;DHT22;19087;51.062;3.754;2024-01-06T23:10:16;6.00;99.90
32698;DHT22;19087;51.062;3.754;2024-01-06T23:12:41;5.90;99.90
32698;DHT22;19087;51.062;3.754;2024-01-06T23:15:09;6.10;99.90
32698;DHT22;19087;51.062;3.754;2024-01-06T23:17:35;6.10;99.90
32698;DHT22;19087;51.062;3.754;2024-01-06T23:20:01;6.00;99.90
32698;DHT22;19087;51.062;3.754;2024-01-06T23:22:27;6.20;99.90
32698;DHT22;19087;51.062;3.754;2024-01-06T23:24:53;6.30;99.90
32698;DHT22;19087;51.062;3.754;2024-01-06T23:27:18;6.10;99.90
32698;DHT22;19087;51.062;3.754;2024-01-06T23:29:44;6.10;99.90
32698;DHT22;19087;51.062;3.754;2024-01-06T23:32:10;6.10;99.90
32698;DHT22;19087;51.062;3.754;2024-01-06T23:34:35;6.00;99.90
32698;DHT22;19087;51.062;3.754;2024-01-06T23:37:01;6.10;99.90
32698;DHT22;19087;51.062;3.754;2024-01-06T23:39:28;6.00;99.90
32698;DHT22;19087;51.062;3.754;2024-01-06T23:41:54;5.90;99.90
32698;DHT22;19087;51.062;3.754;2024-01-06T23:44:20;6.00;99.90
32698;DHT22;19087;51.062;3.754;2024-01-06T23:46:45;6.00;99.90
32698;DHT22;19087;51.062;3.754;2024-01-06T23:49:13;5.80;99.90
32698;DHT22;19087;51.062;3.754;2024-01-06T23:51:39;5.80;99.90
32698;DHT22;19087;51.062;3.754;2024-01-06T23:54:05;5.90;99.90
32698;DHT22;19087;51.062;3.754;2024-01-06T23:56:32;6.00;99.90
32698;DHT22;19087;51.062;3.754;2024-01-06T23:58:58;6.00;99.90
